Time;durP1;ratioP1;P1;durP2;ratioP2;P2;SDS_P1;SDS_P2;PMS_P1;PMS_P2;Temp;Humidity;BMP_temperature;BMP_pressure;BME280_temperature;BME280_humidity;BME280_pressure;Samples;Min_cycle;Max_cycle;Signal;HPM_P1;HPM_P2
2022/07/25 00:00:30;;;;;;;0.03;0.03;;;;;;;22.05;54.71;100131.56;5071998;28;20190;-73
2022/07/25 00:02:56;;;;;;;0.53;0.53;;;;;;;22.13;54.28;100124.81;5071967;28;20750;-73
2022/07/25 00:05:21;;;;;;;0.00;0.00;;;;;;;22.10;54.29;100120.06;5070596;28;20289;-73
2022/07/25 00:07:47;;;;;;;0.00;0.00;;;;;;;22.10;53.96;100122.84;5070185;28;20753;-73
2022/07/25 00:10:12;;;;;;;0.00;0.00;;;;;;;22.04;54.26;100125.19;5071504;28;20725;-73
2022/07/25 00:12:38;;;;;;;0.10;0.10;;;;;;;22.11;53.94;100118.88;5070373;28;20178;-73
2022/07/25 00:15:04;;;;;;;0.00;0.00;;;;;;;22.18;53.50;100114.09;5070404;28;20281;-73
2022/07/25 00:17:29;;;;;;;0.20;0.20;;;;;;;22.13;53.49;100114.50;5070306;28;20186;-73
2022/07/25 00:19:55;;;;;;;0.00;0.00;;;;;;;22.18;53.05;100107.75;5071324;28;20256;-73
2022/07/25 00:22:20;;;;;;;0.97;0.97;;;;;;;22.17;53.15;100103.38;5071412;28;20185;-72
2022/07/25 00:24:46;;;;;;;0.00;0.00;;;;;;;22.18;53.08;100116.09;5071666;28;20196;-73
2022/07/25 00:27:11;;;;;;;0.00;0.00;;;;;;;22.20;53.06;100108.13;5070014;28;20658;-73
2022/07/25 00:29:36;;;;;;;0.10;0.10;;;;;;;22.18;53.18;100108.53;5070894;28;20199;-72
2022/07/25 00:32:02;;;;;;;0.00;0.00;;;;;;;22.14;53.23;100098.59;5071424;28;20171;-73
2022/07/25 00:34:27;;;;;;;1.00;1.00;;;;;;;22.13;53.22;100097.00;5071249;28;20630;-73
2022/07/25 00:36:52;;;;;;;0.30;0.30;;;;;;;22.16;53.09;100099.00;5071339;28;20174;-73
2022/07/25 00:39:18;;;;;;;0.00;0.00;;;;;;;22.07;53.40;100087.47;5069647;28;20658;-73
2022/07/25 00:41:43;;;;;;;0.00;0.00;;;;;;;22.11;53.21;100093.81;5069886;28;20221;-73
2022/07/25 00:44:20;;;;;;;0.23;0.23;;;;;;;22.08;53.08;100091.84;5071268;28;20178;-73
2022/07/25 00:46:45;;;;;;;0.00;0.00;;;;;;;22.08;52.89;100092.63;5070925;28;20174;-73
2022/07/25 00:49:10;;;;;;;0.13;0.13;;;;;;;22.12;52.81;100085.06;5070684;28;20354;-73
2022/07/25 00:51:36;;;;;;;0.00;0.00;;;;;;;22.15;52.60;100080.72;5070946;28;20190;-73
2022/07/25 00:54:01;;;;;;;0.10;0.10;;;;;;;22.08;52.77;100084.28;5069710;28;20605;-73
2022/07/25 00:56:27;;;;;;;0.10;0.10;;;;;;;22.12;52.88;100082.28;5069787;28;20227;-73
2022/07/25 00:58:52;;;;;;;0.00;0.00;;;;;;;22.02;53.10;100079.50;5069208;28;20268;-73
2022/07/25 01:01:17;;;;;;;0.00;0.00;;;;;;;21.98;53.16;100074.72;5069629;28;20601;-73
2022/07/25 01:03:43;;;;;;;0.00;0.00;;;;;;;21.97;53.04;100077.88;5070841;28;20193;-73
2022/07/25 01:06:08;;;;;;;0.00;0.00;;;;;;;21.96;53.10;100073.53;5070803;28;20172;-72
2022/07/25 01:08:34;;;;;;;0.20;0.20;;;;;;;22.00;52.91;100067.97;5070390;28;20265;-73
2022/07/25 01:10:59;;;;;;;0.00;0.00;;;;;;;22.04;52.80;100071.53;5070871;28;20296;-72
2022/07/25 01:13:25;;;;;;;0.00;0.00;;;;;;;22.02;52.91;100065.59;5070933;28;20639;-73
2022/07/25 01:15:50;;;;;;;0.00;0.00;;;;;;;21.95;53.34;100066.38;5070707;28;20684;-73
2022/07/25 01:18:16;;;;;;;0.23;0.23;;;;;;;21.95;52.89;100063.59;5070314;28;20216;-73
2022/07/25 01:20:41;;;;;;;0.00;0.00;;;;;;;21.97;53.00;100062.00;5069421;28;20327;-73
2022/07/25 01:23:07;;;;;;;0.00;0.00;;;;;;;22.00;53.25;100062.41;5068515;28;20175;-73
2022/07/25 01:25:32;;;;;;;0.00;0.00;;;;;;;22.00;53.04;100062.41;5070664;28;20178;-73
2022/07/25 01:27:58;;;;;;;0.00;0.00;;;;;;;21.98;52.97;100065.56;5070360;28;20174;-73
2022/07/25 01:30:24;;;;;;;0.00;0.00;;;;;;;21.91;53.27;100058.03;5070247;28;20213;-72
2022/07/25 01:32:50;;;;;;;0.00;0.00;;;;;;;21.92;53.04;100056.84;5069202;28;20534;-73
2022/07/25 01:35:15;;;;;;;0.00;0.00;;;;;;;21.93;52.88;100065.97;5070823;28;20174;-73
2022/07/25 01:37:41;;;;;;;0.00;0.00;;;;;;;21.90;52.88;100064.78;5069024;28;20638;-73
2022/07/25 01:40:08;;;;;;;0.00;0.00;;;;;;;21.90;52.77;100064.78;5070269;28;20255;-73
2022/07/25 01:42:33;;;;;;;0.00;0.00;;;;;;;21.92;52.74;100059.63;5069139;28;20206;-73
2022/07/25 01:44:59;;;;;;;0.00;0.00;;;;;;;21.88;52.57;100058.84;5070876;28;20220;-73
2022/07/25 01:47:24;;;;;;;0.00;0.00;;;;;;;21.93;52.09;100054.84;5069020;28;20467;-73
2022/07/25 01:49:50;;;;;;;0.00;0.00;;;;;;;21.99;51.87;100047.72;5070099;28;20226;-73
2022/07/25 01:52:16;;;;;;;0.00;0.00;;;;;;;22.00;51.89;100040.94;5069094;28;20182;-73
2022/07/25 01:54:41;;;;;;;0.00;0.00;;;;;;;21.97;51.73;100053.66;5070441;28;20704;-73
2022/07/25 01:57:07;;;;;;;0.00;0.00;;;;;;;22.04;51.10;100044.50;5068866;28;20179;-73
2022/07/25 01:59:37;;;;;;;0.10;0.10;;;;;;;22.13;50.96;100046.91;5070008;28;20179;-73
2022/07/25 02:02:04;;;;;;;0.00;0.00;;;;;;;22.20;51.12;100041.34;5070402;28;20186;-73
2022/07/25 02:04:29;;;;;;;0.00;0.00;;;;;;;22.15;51.10;100047.31;5069028;28;20178;-73
2022/07/25 02:06:54;;;;;;;0.00;0.00;;;;;;;22.13;51.14;100041.34;5070083;28;20491;-73
2022/07/25 02:09:20;;;;;;;0.07;0.07;;;;;;;22.17;50.91;100037.38;5068540;28;20209;-73
2022/07/25 02:11:45;;;;;;;0.00;0.00;;;;;;;22.16;50.79;100038.56;5068836;28;20650;-72
2022/07/25 02:14:10;;;;;;;0.00;0.00;;;;;;;22.24;50.64;100039.34;5070156;28;20202;-73
2022/07/25 02:16:36;;;;;;;0.00;0.00;;;;;;;22.23;50.66;100032.97;5070233;28;20178;-73
2022/07/25 02:19:01;;;;;;;0.00;0.00;;;;;;;22.22;50.61;100027.81;5069853;28;20166;-73
2022/07/25 02:21:26;;;;;;;0.00;0.00;;;;;;;22.20;50.83;100008.75;5068862;28;20209;-73
2022/07/25 02:23:52;;;;;;;0.03;0.03;;;;;;;22.17;50.86;100008.75;5070181;28;20197;-73
2022/07/25 02:26:17;;;;;;;0.10;0.10;;;;;;;22.19;50.76;100007.16;5070184;28;20185;-73
2022/07/25 02:28:42;;;;;;;0.00;0.00;;;;;;;22.13;51.16;100003.19;5067841;28;20224;-73
2022/07/25 02:31:08;;;;;;;0.00;0.00;;;;;;;22.14;50.81;100001.22;5068729;28;20255;-73
2022/07/25 02:33:34;;;;;;;0.00;0.00;;;;;;;22.10;50.81;99992.06;5071394;28;20170;-73
2022/07/25 02:35:59;;;;;;;0.43;0.40;;;;;;;22.12;50.97;99992.44;5072314;28;20531;-72
2022/07/25 02:38:25;;;;;;;0.00;0.00;;;;;;;22.09;50.98;99988.47;5073186;28;20662;-73
2022/07/25 02:40:51;;;;;;;0.00;0.00;;;;;;;22.04;50.99;99993.63;5073597;28;20249;-73
2022/07/25 02:43:18;;;;;;;0.30;0.30;;;;;;;22.06;50.96;99988.50;5072208;28;20626;-73
2022/07/25 02:45:44;;;;;;;0.20;0.20;;;;;;;22.06;50.92;99985.72;5072176;28;20186;-73
2022/07/25 02:48:12;;;;;;;0.00;0.00;;;;;;;22.13;50.93;99988.47;5073195;28;20261;-73
2022/07/25 02:50:38;;;;;;;0.00;0.00;;;;;;;22.18;50.54;99988.06;5073221;28;20705;-73
2022/07/25 02:53:04;;;;;;;0.00;0.00;;;;;;;22.18;50.63;99988.06;5073330;28;20171;-72
2022/07/25 02:55:30;;;;;;;0.07;0.07;;;;;;;22.18;50.55;99979.72;5073322;28;20539;-73
2022/07/25 02:57:56;;;;;;;0.20;0.20;;;;;;;22.11;50.83;99968.59;5073302;28;20182;-73
2022/07/25 03:00:22;;;;;;;0.00;0.00;;;;;;;22.13;50.84;99964.25;5071705;28;20178;-73
2022/07/25 03:02:47;;;;;;;0.00;0.00;;;;;;;22.16;50.60;99982.13;5073280;28;20258;-72
2022/07/25 03:05:14;;;;;;;0.30;0.30;;;;;;;22.19;50.64;99975.75;5073142;28;20257;-73
2022/07/25 03:07:41;;;;;;;0.00;0.00;;;;;;;22.16;50.45;99968.22;5072889;28;20178;-73
2022/07/25 03:10:08;;;;;;;0.00;0.00;;;;;;;22.16;50.44;99965.44;5071509;28;20214;-73
2022/07/25 03:12:34;;;;;;;0.37;0.37;;;;;;;22.17;50.34;99967.81;5073078;28;20232;-73
2022/07/25 03:15:00;;;;;;;0.00;0.00;;;;;;;22.19;50.33;99964.63;5071667;28;20189;-73
2022/07/25 03:17:27;;;;;;;0.00;0.00;;;;;;;22.19;50.34;99967.41;5071201;28;20205;-73
2022/07/25 03:19:52;;;;;;;0.00;0.00;;;;;;;22.13;50.54;99957.84;5072636;28;20210;-73
2022/07/25 03:22:18;;;;;;;0.00;0.00;;;;;;;22.17;50.57;99962.25;5072861;28;20619;-73
2022/07/25 03:24:43;;;;;;;0.00;0.00;;;;;;;22.15;50.62;99961.06;5071524;28;20190;-73
2022/07/25 03:27:08;;;;;;;0.00;0.00;;;;;;;22.09;50.57;99957.09;5071220;28;20180;-73
2022/07/25 03:29:35;;;;;;;0.00;0.00;;;;;;;22.10;50.99;99955.88;5071832;28;20221;-74
2022/07/25 03:32:00;;;;;;;0.00;0.00;;;;;;;22.13;50.84;99960.63;5072574;28;20187;-72
2022/07/25 03:34:28;;;;;;;0.00;0.00;;;;;;;22.09;51.13;99948.72;5071143;28;20206;-73
2022/07/25 03:36:53;;;;;;;0.00;0.00;;;;;;;22.05;50.96;99954.31;5072410;28;20189;-73
2022/07/25 03:39:19;;;;;;;0.00;0.00;;;;;;;22.06;51.39;99955.09;5070859;28;20176;-73
2022/07/25 03:41:45;;;;;;;0.00;0.00;;;;;;;21.95;52.28;99943.97;5072529;28;20180;-72
2022/07/25 03:44:11;;;;;;;0.00;0.00;;;;;;;21.82;52.67;99951.13;5072590;28;20174;-73
2022/07/25 03:46:37;;;;;;;0.10;0.10;;;;;;;21.61;54.01;99938.84;5070188;28;20204;-73
2022/07/25 03:49:02;;;;;;;0.00;0.00;;;;;;;21.31;56.06;99944.81;5070437;28;20181;-72
2022/07/25 03:51:27;;;;;;;0.30;0.30;;;;;;;20.99;57.51;99944.75;5070864;28;20489;-73
2022/07/25 03:54:02;;;;;;;0.00;0.00;;;;;;;20.72;58.42;99933.19;5072213;28;20184;-73
2022/07/25 03:56:34;;;;;;;0.23;0.23;;;;;;;20.59;58.09;99934.72;5072237;28;20158;-72
2022/07/25 03:59:00;;;;;;;0.00;0.00;;;;;;;20.47;58.91;99926.75;5071998;28;20223;-73
2022/07/25 04:01:25;;;;;;;0.00;0.00;;;;;;;20.44;58.77;99924.75;5072060;28;20208;-73
2022/07/25 04:03:51;;;;;;;0.00;0.00;;;;;;;20.51;58.31;99924.78;5070603;28;20760;-73
2022/07/25 04:06:16;;;;;;;0.00;0.00;;;;;;;20.56;57.88;99927.19;5070620;28;20211;-73
2022/07/25 04:08:41;;;;;;;0.00;0.00;;;;;;;20.71;57.82;99919.69;5071746;28;20176;-74
2022/07/25 04:11:07;;;;;;;0.00;0.00;;;;;;;20.84;56.68;99917.34;5071944;28;20219;-73
2022/07/25 04:13:32;;;;;;;0.00;0.00;;;;;;;20.96;57.22;99911.41;5072214;28;20845;-73
2022/07/25 04:15:57;;;;;;;0.00;0.00;;;;;;;21.04;56.46;99907.47;5071793;28;20211;-74
2022/07/25 04:18:23;;;;;;;0.00;0.00;;;;;;;21.11;57.39;99907.44;5071240;28;20181;-73
2022/07/25 04:20:48;;;;;;;0.10;0.10;;;;;;;21.17;57.25;99911.44;5070349;28;20181;-73
2022/07/25 04:23:14;;;;;;;0.07;0.07;;;;;;;21.21;56.02;99903.88;5071794;28;20579;-73
2022/07/25 04:25:39;;;;;;;0.00;0.00;;;;;;;21.30;55.82;99904.34;5070147;28;20182;-74
2022/07/25 04:28:04;;;;;;;0.00;0.00;;;;;;;21.38;56.17;99905.09;5070474;28;20285;-74
2022/07/25 04:30:30;;;;;;;0.00;0.00;;;;;;;21.46;55.61;99906.69;5071174;28;20216;-74
2022/07/25 04:32:55;;;;;;;0.00;0.00;;;;;;;21.55;55.67;99897.94;5071604;28;20693;-73
2022/07/25 04:35:21;;;;;;;0.00;0.00;;;;;;;21.57;55.67;99895.59;5071412;28;20570;-74
2022/07/25 04:37:47;;;;;;;0.00;0.00;;;;;;;21.56;55.97;99896.78;5071205;28;20176;-73
2022/07/25 04:40:12;;;;;;;0.00;0.00;;;;;;;21.64;55.77;99892.78;5071051;28;20173;-74
2022/07/25 04:42:38;;;;;;;0.00;0.00;;;;;;;21.78;56.13;99894.72;5071184;28;20174;-73
2022/07/25 04:45:03;;;;;;;0.00;0.00;;;;;;;21.82;55.95;99890.75;5071269;28;20177;-74
2022/07/25 04:47:29;;;;;;;0.00;0.00;;;;;;;21.86;56.30;99888.78;5069817;28;20185;-74
2022/07/25 04:49:54;;;;;;;0.00;0.00;;;;;;;21.90;58.09;99877.63;5070992;28;20712;-73
2022/07/25 04:52:19;;;;;;;0.00;0.00;;;;;;;21.94;57.53;99872.84;5071549;28;20639;-74
2022/07/25 04:54:45;;;;;;;0.00;0.00;;;;;;;22.00;56.78;99868.47;5073956;28;20210;-74
2022/07/25 04:57:10;;;;;;;0.00;0.00;;;;;;;22.05;56.86;99865.28;5070888;28;20554;-74
2022/07/25 04:59:35;;;;;;;0.70;0.70;;;;;;;22.06;56.95;99864.09;5069548;28;20273;-74
2022/07/25 05:02:01;;;;;;;0.20;0.20;;;;;;;22.07;56.91;99856.53;5071274;28;20198;-74
2022/07/25 05:04:27;;;;;;;0.00;0.00;;;;;;;22.12;56.13;99851.31;5071353;28;20232;-74
2022/07/25 05:06:52;;;;;;;0.00;0.00;;;;;;;22.18;55.93;99849.72;5069631;28;20217;-74
2022/07/25 05:09:18;;;;;;;0.00;0.00;;;;;;;22.20;55.71;99852.09;5070588;28;20209;-74
2022/07/25 05:11:43;;;;;;;0.17;0.17;;;;;;;22.26;55.16;99851.25;5070972;28;20188;-74
2022/07/25 05:14:08;;;;;;;0.00;0.00;;;;;;;22.31;55.00;99846.50;5070949;28;20175;-74
2022/07/25 05:16:34;;;;;;;0.00;0.00;;;;;;;22.48;54.34;99840.81;5070712;28;20181;-74
2022/07/25 05:18:59;;;;;;;0.00;0.00;;;;;;;22.53;54.42;99837.59;5069242;28;20671;-74
2022/07/25 05:21:24;;;;;;;0.00;0.00;;;;;;;22.60;53.75;99842.34;5070918;28;20208;-74
2022/07/25 05:23:50;;;;;;;0.00;0.00;;;;;;;22.73;53.90;99851.81;5069483;28;20212;-74
2022/07/25 05:26:15;;;;;;;0.10;0.10;;;;;;;22.80;53.82;99840.59;5070761;28;20174;-74
2022/07/25 05:28:40;;;;;;;0.00;0.00;;;;;;;22.91;53.24;99832.19;5069196;28;20540;-74
2022/07/25 05:31:06;;;;;;;0.00;0.00;;;;;;;22.95;53.57;99832.16;5070442;28;20214;-74
2022/07/25 05:33:33;;;;;;;0.00;0.00;;;;;;;23.04;53.03;99822.16;5070652;28;20181;-74
2022/07/25 05:35:59;;;;;;;0.00;0.00;;;;;;;23.14;52.53;99829.59;5070506;28;20174;-74
2022/07/25 05:38:24;;;;;;;0.83;0.60;;;;;;;23.24;52.92;99821.56;5069858;28;20181;-74
2022/07/25 05:40:51;;;;;;;0.00;0.00;;;;;;;23.31;52.50;99827.09;5069243;28;20261;-74
2022/07/25 05:43:16;;;;;;;0.00;0.00;;;;;;;23.44;52.28;99822.59;5070515;28;20549;-74
2022/07/25 05:45:43;;;;;;;0.73;0.73;;;;;;;23.49;52.36;99824.91;5070545;28;20182;-73
2022/07/25 05:48:08;;;;;;;0.03;0.03;;;;;;;23.58;51.95;99825.25;5068602;28;20258;-73
2022/07/25 05:50:36;;;;;;;0.00;0.00;;;;;;;23.64;51.70;99817.22;5070232;28;20220;-74
2022/07/25 05:53:01;;;;;;;0.00;0.00;;;;;;;23.74;51.96;99822.69;5069116;28;20179;-73
2022/07/25 05:55:27;;;;;;;0.23;0.23;;;;;;;23.75;51.55;99817.88;5070285;28;20175;-74
2022/07/25 05:57:52;;;;;;;0.00;0.00;;;;;;;23.78;51.07;99805.88;5070246;28;20175;-74
2022/07/25 06:00:17;;;;;;;0.00;0.00;;;;;;;24.04;52.61;99815.53;5070137;28;20198;-73
2022/07/25 06:02:44;;;;;;;0.00;0.00;;;;;;;24.07;51.16;99809.13;5070472;28;20203;-76
2022/07/25 06:05:09;;;;;;;0.20;0.20;;;;;;;24.13;50.65;99807.44;5070362;28;20194;-74
2022/07/25 06:07:35;;;;;;;0.10;0.10;;;;;;;24.22;50.77;99806.94;5069045;28;20186;-73
2022/07/25 06:10:00;;;;;;;0.63;0.63;;;;;;;24.43;50.28;99805.84;5072270;28;20206;-74
2022/07/25 06:12:25;;;;;;;0.00;0.00;;;;;;;24.56;50.12;99804.06;5072846;28;20270;-73
2022/07/25 06:14:51;;;;;;;0.93;0.93;;;;;;;24.53;49.37;99805.69;5074376;28;20181;-74
2022/07/25 06:17:16;;;;;;;0.63;0.63;;;;;;;24.54;49.55;99798.13;5073871;28;20175;-74
2022/07/25 06:19:42;;;;;;;0.00;0.00;;;;;;;24.58;49.92;99802.44;5073720;28;20538;-73
2022/07/25 06:22:08;;;;;;;0.07;0.07;;;;;;;24.62;49.52;99803.19;5073834;28;20530;-74
2022/07/25 06:24:34;;;;;;;0.00;0.00;;;;;;;24.69;49.41;99802.28;5072730;28;20649;-73
2022/07/25 06:26:59;;;;;;;0.00;0.00;;;;;;;24.78;49.55;99798.94;5074021;28;20262;-74
2022/07/25 06:29:24;;;;;;;0.00;0.00;;;;;;;24.89;48.94;99797.56;5072729;28;20263;-73
2022/07/25 06:31:50;;;;;;;0.00;0.00;;;;;;;25.11;48.74;99800.81;5071459;28;20194;-74
2022/07/25 06:34:15;;;;;;;0.57;0.57;;;;;;;25.30;48.62;99795.69;5073519;28;20416;-74
2022/07/25 06:36:41;;;;;;;0.50;0.50;;;;;;;25.34;48.12;99797.22;5073413;28;20182;-74
2022/07/25 06:39:06;;;;;;;0.27;0.27;;;;;;;25.55;48.31;99803.59;5073552;28;20217;-74
2022/07/25 06:41:31;;;;;;;0.90;0.83;;;;;;;25.73;47.30;99795.69;5073693;28;20171;-75
2022/07/25 06:43:57;;;;;;;1.03;1.03;;;;;;;25.77;47.37;99796.41;5073594;28;20179;-74
2022/07/25 06:46:22;;;;;;;0.10;0.10;;;;;;;25.91;46.89;99789.75;5072090;28;20174;-74
2022/07/25 06:48:47;;;;;;;0.00;0.00;;;;;;;26.14;47.38;99783.22;5073365;28;20540;-74
2022/07/25 06:51:13;;;;;;;0.17;0.17;;;;;;;26.15;46.03;99784.81;5071865;28;20218;-74
2022/07/25 06:53:38;;;;;;;0.30;0.30;;;;;;;26.22;45.97;99776.25;5073280;28;20179;-74
2022/07/25 06:56:04;;;;;;;0.47;0.47;;;;;;;26.30;46.52;99772.06;5073306;28;20254;-74
2022/07/25 06:58:29;;;;;;;0.00;0.00;;;;;;;26.43;46.61;99777.81;5072909;28;20210;-74
2022/07/25 07:00:54;;;;;;;0.00;0.00;;;;;;;26.56;45.87;99770.28;5073598;28;20185;-74
2022/07/25 07:03:20;;;;;;;0.20;0.20;;;;;;;26.75;45.35;99774.22;5073144;28;20170;-74
2022/07/25 07:05:45;;;;;;;0.83;0.83;;;;;;;26.89;46.10;99768.25;5073030;28;20746;-73
2022/07/25 07:08:11;;;;;;;0.00;0.00;;;;;;;27.07;45.61;99774.25;5072517;28;20175;-75
2022/07/25 07:10:36;;;;;;;0.00;0.00;;;;;;;27.17;44.83;99770.38;5072913;28;20268;-75
2022/07/25 07:13:13;;;;;;;0.00;0.00;;;;;;;27.19;44.65;99770.72;5073154;28;20175;-74
2022/07/25 07:15:44;;;;;;;0.30;0.30;;;;;;;27.17;45.35;99758.34;5072950;28;20181;-73
2022/07/25 07:18:09;;;;;;;1.90;1.27;;;;;;;27.24;45.20;99767.38;5072337;28;20237;-73
2022/07/25 07:20:34;;;;;;;0.47;0.47;;;;;;;27.22;45.05;99752.22;5071782;28;20605;-74
2022/07/25 07:23:00;;;;;;;0.83;0.83;;;;;;;27.07;45.25;99760.22;5072665;28;20176;-73
2022/07/25 07:25:26;;;;;;;0.10;0.10;;;;;;;27.03;45.10;99755.94;5071358;28;20180;-74
2022/07/25 07:27:51;;;;;;;0.30;0.30;;;;;;;27.17;45.91;99759.16;5072488;28;20175;-74
2022/07/25 07:30:17;;;;;;;10.07;2.37;;;;;;;27.37;45.43;99753.41;5071323;28;20675;-73
2022/07/25 07:32:43;;;;;;;1.50;1.40;;;;;;;27.57;44.06;99750.44;5071500;28;20172;-74
2022/07/25 07:35:10;;;;;;;1.30;1.30;;;;;;;27.72;43.68;99751.63;5072440;28;20322;-74
2022/07/25 07:37:35;;;;;;;1.40;1.30;;;;;;;27.87;44.61;99746.38;5071926;28;20477;-72
2022/07/25 07:40:00;;;;;;;1.77;1.47;;;;;;;27.94;43.42;99746.19;5072110;28;20646;-73
2022/07/25 07:42:26;;;;;;;1.87;1.77;;;;;;;28.08;43.45;99742.16;5067693;28;20640;-72
2022/07/25 07:44:51;;;;;;;0.30;0.30;;;;;;;28.14;43.07;99737.56;5070637;28;20185;-73
2022/07/25 07:47:17;;;;;;;10.93;2.70;;;;;;;28.29;42.74;99735.09;5070245;28;20181;-73
2022/07/25 07:49:42;;;;;;;0.00;0.00;;;;;;;28.43;42.60;99734.66;5069869;28;20202;-71
2022/07/25 07:52:08;;;;;;;0.00;0.00;;;;;;;28.61;42.19;99732.03;5071963;28;20176;-72
2022/07/25 07:57:17;;;;;;;0.00;0.00;;;;;;;28.94;42.12;99715.72;5070576;28;20900;-73
2022/07/25 07:59:42;;;;;;;1.47;1.40;;;;;;;29.12;43.03;99720.69;5071268;28;20230;-73
2022/07/25 08:02:08;;;;;;;0.47;0.47;;;;;;;29.28;41.37;99717.69;5071736;28;20630;-72
2022/07/25 08:04:33;;;;;;;0.57;0.57;;;;;;;29.43;40.94;99717.97;5071618;28;20182;-72
2022/07/25 08:06:58;;;;;;;1.43;1.33;;;;;;;29.35;40.92;99705.38;5070511;28;20181;-72
2022/07/25 08:09:24;;;;;;;0.83;0.83;;;;;;;29.32;40.92;99712.72;5069608;28;20542;-72
2022/07/25 08:11:51;;;;;;;1.73;1.63;;;;;;;29.28;40.15;99702.84;5071415;28;20173;-72
2022/07/25 08:14:16;;;;;;;1.20;1.17;;;;;;;29.32;41.03;99700.69;5071442;28;20183;-72
2022/07/25 08:16:42;;;;;;;0.00;0.00;;;;;;;29.39;40.97;99700.44;5069884;28;20186;-72
2022/07/25 08:19:07;;;;;;;0.33;0.33;;;;;;;29.55;41.36;99708.69;5069680;28;20174;-72
2022/07/25 08:21:32;;;;;;;0.40;0.40;;;;;;;29.68;40.48;99700.19;5069943;28;20365;-72
2022/07/25 08:23:58;;;;;;;0.40;0.40;;;;;;;29.74;41.36;99703.97;5071761;28;20199;-72
2022/07/25 08:26:26;;;;;;;0.37;0.37;;;;;;;29.71;40.80;99698.47;5069807;28;20522;-72
2022/07/25 08:28:52;;;;;;;1.97;1.80;;;;;;;29.53;40.64;99697.13;5069146;28;20174;-72
2022/07/25 08:31:17;;;;;;;0.57;0.57;;;;;;;29.55;40.94;99693.84;5070763;28;20570;-72
2022/07/25 08:33:42;;;;;;;0.13;0.13;;;;;;;29.75;41.01;99699.09;5069780;28;20630;-72
2022/07/25 08:36:09;;;;;;;0.40;0.40;;;;;;;29.80;39.97;99692.88;5069735;28;20263;-72
2022/07/25 08:38:35;;;;;;;0.20;0.20;;;;;;;29.84;40.02;99691.50;5070289;28;20167;-72
2022/07/25 08:41:01;;;;;;;0.63;0.63;;;;;;;29.92;39.84;99689.97;5070855;28;20653;-72
2022/07/25 08:43:31;;;;;;;0.57;0.57;;;;;;;29.98;41.03;99695.00;5070921;28;20642;-72
2022/07/25 08:45:59;;;;;;;3.80;0.93;;;;;;;30.03;40.02;99683.13;5070987;28;20256;-72
2022/07/25 08:48:25;;;;;;;3.20;3.00;;;;;;;29.99;40.10;99688.13;5070103;28;20175;-72
2022/07/25 08:50:52;;;;;;;1.93;1.37;;;;;;;30.06;39.83;99691.47;5070649;28;20210;-72
2022/07/25 08:53:19;;;;;;;0.20;0.20;;;;;;;30.13;39.71;99684.78;5069385;28;20226;-72
2022/07/25 08:55:45;;;;;;;1.27;1.17;;;;;;;30.27;40.53;99683.41;5070771;28;20417;-72
2022/07/25 08:58:13;;;;;;;1.73;1.63;;;;;;;30.28;39.77;99676.53;5070119;28;20167;-72
2022/07/25 09:00:38;;;;;;;1.60;1.50;;;;;;;30.23;40.69;99672.25;5070629;28;20181;-71
2022/07/25 09:03:07;;;;;;;1.30;1.20;;;;;;;30.25;39.96;99669.78;5069324;28;20170;-72
2022/07/25 09:05:34;;;;;;;0.10;0.10;;;;;;;30.35;39.61;99667.75;5068550;28;20175;-72
2022/07/25 09:08:14;;;;;;;2.40;1.60;;;;;;;30.51;40.78;99673.13;5069050;28;20277;-73
2022/07/25 09:10:45;;;;;;;0.00;0.00;;;;;;;30.44;40.17;99648.84;5070615;28;20685;-73
2022/07/25 09:13:13;;;;;;;2.30;2.20;;;;;;;30.68;39.77;99648.28;5070514;28;20179;-72
2022/07/25 09:15:50;;;;;;;2.17;2.07;;;;;;;30.82;38.92;99650.50;5069319;28;20595;-73
2022/07/25 09:18:21;;;;;;;0.10;0.10;;;;;;;30.91;38.71;99644.06;5069433;28;20175;-73
2022/07/25 09:20:52;;;;;;;1.37;1.27;;;;;;;31.00;38.48;99641.22;5069186;28;20199;-73
2022/07/25 09:23:38;;;;;;;2.10;2.00;;;;;;;30.99;38.77;99653.78;5070405;28;20297;-74
2022/07/25 09:26:07;;;;;;;0.00;0.00;;;;;;;30.75;38.91;99645.94;5069016;28;20554;-74
2022/07/25 09:28:52;;;;;;;3.53;3.43;;;;;;;30.90;39.40;99648.13;5069324;28;20175;-74
2022/07/25 09:31:18;;;;;;;0.67;0.63;;;;;;;31.02;39.70;99647.97;5069658;28;20334;-73
2022/07/25 09:33:59;;;;;;;4.10;2.30;;;;;;;31.25;39.10;99640.94;5067222;28;20185;-74
2022/07/25 09:36:24;;;;;;;3.40;3.17;;;;;;;31.21;38.50;99640.28;5068541;28;20273;-73
2022/07/25 09:38:54;;;;;;;2.50;2.40;;;;;;;31.19;38.28;99636.38;5064165;28;20884;-73
2022/07/25 09:41:20;;;;;;;1.47;1.40;;;;;;;31.20;38.78;99637.94;5062509;28;20175;-73
2022/07/25 09:43:46;;;;;;;3.87;1.77;;;;;;;31.41;38.48;99624.91;5070099;28;20176;-73
2022/07/25 09:46:12;;;;;;;0.87;0.87;;;;;;;31.37;38.16;99633.50;5074625;28;20172;-73
2022/07/25 09:48:39;;;;;;;2.87;1.33;;;;;;;31.02;38.58;99633.84;5074148;28;20654;-72
2022/07/25 09:51:06;;;;;;;0.00;0.00;;;;;;;30.90;39.79;99634.03;5073159;28;20215;-73
2022/07/25 09:53:32;;;;;;;0.57;0.57;;;;;;;30.96;38.88;99632.94;5074617;28;20175;-74
2022/07/25 09:55:58;;;;;;;2.53;2.20;;;;;;;31.00;39.23;99625.09;5073180;28;20312;-73
2022/07/25 09:58:24;;;;;;;2.63;2.43;;;;;;;31.24;39.77;99621.63;5072738;28;20259;-73
2022/07/25 10:00:52;;;;;;;1.50;1.40;;;;;;;31.38;39.11;99618.91;5073190;28;20168;-73
2022/07/25 10:03:57;;;;;;;3.10;2.87;;;;;;;31.39;38.30;99616.88;5074499;28;20188;-73
2022/07/25 10:06:40;;;;;;;1.70;1.60;;;;;;;31.35;38.87;99616.28;5074380;28;20198;-73
2022/07/25 10:09:12;;;;;;;2.23;2.13;;;;;;;31.29;39.09;99610.50;5074375;28;20175;-74
2022/07/25 10:11:39;;;;;;;0.73;0.73;;;;;;;31.39;39.12;99608.41;5074090;28;20172;-73
2022/07/25 10:14:11;;;;;;;1.20;1.20;;;;;;;31.41;38.91;99600.28;5074521;28;20199;-74
2022/07/25 10:16:47;;;;;;;2.67;2.10;;;;;;;31.47;38.91;99603.22;5074063;28;20180;-73
2022/07/25 10:19:12;;;;;;;2.40;2.17;;;;;;;31.37;38.17;99594.75;5070574;28;20177;-72
2022/07/25 10:21:38;;;;;;;1.50;1.40;;;;;;;31.28;38.60;99585.56;5072914;28;20180;-74
2022/07/25 10:24:06;;;;;;;0.83;0.63;;;;;;;31.21;38.39;99586.66;5073801;28;20184;-72
2022/07/25 10:26:34;;;;;;;1.37;1.27;;;;;;;31.19;39.37;99579.91;5073884;28;20183;-72
2022/07/25 10:29:01;;;;;;;1.07;1.07;;;;;;;31.27;38.28;99576.31;5073728;28;20692;-72
2022/07/25 10:31:35;;;;;;;1.70;1.67;;;;;;;31.25;38.46;99569.56;5073753;28;20212;-73
2022/07/25 10:34:05;;;;;;;0.00;0.00;;;;;;;31.44;38.61;99575.94;5073755;28;20601;-72
2022/07/25 10:36:47;;;;;;;1.57;1.53;;;;;;;31.65;37.42;99570.03;5073194;28;20187;-73
2022/07/25 10:39:15;;;;;;;1.27;0.83;;;;;;;31.83;37.69;99572.03;5071703;28;20211;-72
2022/07/25 10:41:42;;;;;;;0.27;0.27;;;;;;;31.90;36.71;99568.84;5071919;28;20206;-72
2022/07/25 10:44:13;;;;;;;0.20;0.20;;;;;;;31.90;36.73;99568.84;5071710;28;20184;-72
2022/07/25 10:46:38;;;;;;;1.57;1.20;;;;;;;32.04;36.81;99573.00;5072866;28;20259;-72
2022/07/25 10:49:06;;;;;;;0.73;0.73;;;;;;;32.04;37.35;99561.72;5072622;28;20388;-72
2022/07/25 10:51:33;;;;;;;1.53;1.43;;;;;;;32.12;36.62;99571.41;5072816;28;20308;-72
2022/07/25 10:53:59;;;;;;;0.00;0.00;;;;;;;32.21;36.95;99550.75;5072710;28;20183;-73
2022/07/25 10:56:28;;;;;;;0.87;0.87;;;;;;;32.48;35.83;99567.56;5072973;28;20181;-72
2022/07/25 10:58:58;;;;;;;2.10;1.90;;;;;;;32.83;35.35;99561.31;5072181;28;20696;-72
2022/07/25 11:01:36;;;;;;;1.43;1.40;;;;;;;33.09;34.66;99565.13;5071608;28;20182;-73
2022/07/25 11:04:05;;;;;;;0.80;0.80;;;;;;;32.81;35.00;99558.97;5073184;28;20174;-72
2022/07/25 11:06:38;;;;;;;5.97;2.80;;;;;;;32.54;34.76;99553.50;5072851;28;20260;-72
2022/07/25 11:09:13;;;;;;;1.90;1.80;;;;;;;32.47;35.40;99548.25;5072353;28;20171;-72
2022/07/25 11:11:46;;;;;;;2.00;1.83;;;;;;;32.60;35.85;99547.97;5071436;28;20193;-72
2022/07/25 11:14:20;;;;;;;1.10;1.00;;;;;;;32.70;35.58;99543.81;5072729;28;20498;-72
2022/07/25 11:16:47;;;;;;;1.50;1.40;;;;;;;32.51;34.54;99543.16;5072394;28;20178;-72
2022/07/25 11:19:21;;;;;;;0.77;0.77;;;;;;;32.41;34.64;99536.81;5072166;28;20264;-72
2022/07/25 11:21:48;;;;;;;1.40;1.30;;;;;;;32.38;35.82;99517.19;5072477;28;20677;-72
2022/07/25 11:24:14;;;;;;;0.70;0.70;;;;;;;32.36;35.26;99519.72;5072550;28;20660;-73
2022/07/25 11:26:51;;;;;;;1.03;1.00;;;;;;;32.32;35.95;99517.09;5073000;28;20175;-73
2022/07/25 11:29:23;;;;;;;2.37;2.17;;;;;;;32.20;35.73;99515.28;5067919;28;20185;-74
2022/07/25 11:32:00;;;;;;;0.43;0.43;;;;;;;32.13;35.62;99507.94;5071043;28;20270;-74